YTWN weather

Public forecast

Using degrees Celsius for public forecast. Weather courtesy of forecast.io.

Closest aviation weather report (METAR) to Tooraweenah Airport

Closest report is Coonabarabran Airport, 19.9 nm (36.9 km) ENE. Retrieved 2020/08/12 16:00 UTC (59 minutes ago):

YCBB 121600Z AUTO 33007KT 9999 // NCD 12/07 Q1013

Closest aviation forecast (TAF) to Tooraweenah Airport

Closest forecast is Dubbo City Regional Airport, 49.4 nm (91.5 km) SSW. Retrieved 2020/08/12 12:36 UTC (4 hours ago):

TAF YSDU 121044Z 1212/1306 02008KT CAVOK FM121500 12005KT CAVOK FM130100 27008KT CAVOK